sensor_id;sensor_type;location;lat;lon;timestamp;pressure;altitude;pressure_sealevel;temperature;humidity
49461;BME280;35355;49.198;-0.368;2023-03-16T00:01:08;100766.59;;;12.02;55.59
49461;BME280;35355;49.198;-0.368;2023-03-16T00:03:34;100772.06;;;12.02;55.49
49461;BME280;35355;49.198;-0.368;2023-03-16T00:06:00;100761.13;;;12.02;55.85
49461;BME280;35355;49.198;-0.368;2023-03-16T00:08:25;100763.88;;;12.02;55.57
49461;BME280;35355;49.198;-0.368;2023-03-16T00:10:51;100764.94;;;12.01;55.56
49461;BME280;35355;49.198;-0.368;2023-03-16T00:13:19;100754.00;;;12.01;56.19
49461;BME280;35355;49.198;-0.368;2023-03-16T00:15:57;100756.22;;;11.99;55.60
49461;BME280;35355;49.198;-0.368;2023-03-16T00:18:24;100760.03;;;11.98;55.87
49461;BME280;35355;49.198;-0.368;2023-03-16T00:20:59;100755.91;;;11.96;55.82
49461;BME280;35355;49.198;-0.368;2023-03-16T00:23:26;100756.75;;;11.96;56.30
49461;BME280;35355;49.198;-0.368;2023-03-16T00:25:58;100759.75;;;11.95;56.40
49461;BME280;35355;49.198;-0.368;2023-03-16T00:28:25;100760.31;;;11.97;56.09
49461;BME280;35355;49.198;-0.368;2023-03-16T00:30:51;100762.75;;;11.98;56.34
49461;BME280;35355;49.198;-0.368;2023-03-16T00:33:17;100761.69;;;11.99;56.28
49461;BME280;35355;49.198;-0.368;2023-03-16T00:35:47;100757.28;;;11.98;56.58
49461;BME280;35355;49.198;-0.368;2023-03-16T00:38:27;100745.25;;;11.99;56.47
49461;BME280;35355;49.198;-0.368;2023-03-16T00:40:52;100739.78;;;11.99;56.93
49461;BME280;35355;49.198;-0.368;2023-03-16T00:43:17;100739.78;;;11.99;57.02
49461;BME280;35355;49.198;-0.368;2023-03-16T00:45:43;100740.34;;;12.01;56.76
49461;BME280;35355;49.198;-0.368;2023-03-16T00:48:09;100739.53;;;12.01;57.28
49461;BME280;35355;49.198;-0.368;2023-03-16T00:50:35;100738.44;;;12.02;56.90
49461;BME280;35355;49.198;-0.368;2023-03-16T00:53:01;100732.13;;;12.01;57.58
49461;BME280;35355;49.198;-0.368;2023-03-16T00:55:26;100728.56;;;12.01;57.10
49461;BME280;35355;49.198;-0.368;2023-03-16T00:57:52;100725.28;;;11.99;57.35
49461;BME280;35355;49.198;-0.368;2023-03-16T01:00:19;100726.94;;;12.00;57.32
49461;BME280;35355;49.198;-0.368;2023-03-16T01:02:45;100715.44;;;11.98;57.34
49461;BME280;35355;49.198;-0.368;2023-03-16T01:05:11;100709.41;;;11.96;57.47
49461;BME280;35355;49.198;-0.368;2023-03-16T01:07:38;100709.69;;;11.94;57.77
49461;BME280;35355;49.198;-0.368;2023-03-16T01:10:05;100700.91;;;11.92;57.68
49461;BME280;35355;49.198;-0.368;2023-03-16T01:12:30;100707.47;;;11.91;57.88
49461;BME280;35355;49.198;-0.368;2023-03-16T01:14:56;100703.91;;;11.90;58.06
49461;BME280;35355;49.198;-0.368;2023-03-16T01:17:21;100701.19;;;11.90;57.82
49461;BME280;35355;49.198;-0.368;2023-03-16T01:19:47;100696.53;;;11.91;58.01
49461;BME280;35355;49.198;-0.368;2023-03-16T01:22:13;100682.31;;;11.94;58.06
49461;BME280;35355;49.198;-0.368;2023-03-16T01:24:40;100678.50;;;11.95;58.26
49461;BME280;35355;49.198;-0.368;2023-03-16T01:27:07;100674.13;;;11.94;58.40
49461;BME280;35355;49.198;-0.368;2023-03-16T01:29:33;100674.97;;;11.95;58.45
49461;BME280;35355;49.198;-0.368;2023-03-16T01:31:59;100670.56;;;11.93;58.31
49461;BME280;35355;49.198;-0.368;2023-03-16T01:34:24;100674.97;;;11.95;58.12
49461;BME280;35355;49.198;-0.368;2023-03-16T01:36:50;100670.31;;;11.95;58.17
49461;BME280;35355;49.198;-0.368;2023-03-16T01:39:16;100666.75;;;11.95;58.26
49461;BME280;35355;49.198;-0.368;2023-03-16T01:41:43;100661.28;;;11.95;58.07
49461;BME280;35355;49.198;-0.368;2023-03-16T01:44:12;100657.16;;;11.92;58.20
49461;BME280;35355;49.198;-0.368;2023-03-16T01:46:38;100653.88;;;11.90;58.35
49461;BME280;35355;49.198;-0.368;2023-03-16T01:49:08;100648.91;;;11.87;58.23
49461;BME280;35355;49.198;-0.368;2023-03-16T01:54:03;100642.38;;;11.88;58.63
49461;BME280;35355;49.198;-0.368;2023-03-16T01:56:42;100646.75;;;11.89;58.52
49461;BME280;35355;49.198;-0.368;2023-03-16T01:59:13;100642.94;;;11.90;58.35
49461;BME280;35355;49.198;-0.368;2023-03-16T02:01:39;100642.94;;;11.90;58.65
49461;BME280;35355;49.198;-0.368;2023-03-16T02:06:56;100638.28;;;11.90;58.57
49461;BME280;35355;49.198;-0.368;2023-03-16T02:09:22;100633.63;;;11.91;58.36
49461;BME280;35355;49.198;-0.368;2023-03-16T02:11:49;100622.66;;;11.91;58.40
49461;BME280;35355;49.198;-0.368;2023-03-16T02:14:15;100632.25;;;11.88;58.72
49461;BME280;35355;49.198;-0.368;2023-03-16T02:16:40;100627.03;;;11.87;58.26
49461;BME280;35355;49.198;-0.368;2023-03-16T02:19:10;100625.41;;;11.86;58.70
49461;BME280;35355;49.198;-0.368;2023-03-16T02:21:54;100618.56;;;11.83;58.62
49461;BME280;35355;49.198;-0.368;2023-03-16T02:24:26;100626.22;;;11.86;58.54
49461;BME280;35355;49.198;-0.368;2023-03-16T02:27:04;100615.84;;;11.83;58.79
49461;BME280;35355;49.198;-0.368;2023-03-16T02:32:09;100603.00;;;11.79;58.79
49461;BME280;35355;49.198;-0.368;2023-03-16T02:34:36;100593.41;;;11.76;58.63
49461;BME280;35355;49.198;-0.368;2023-03-16T02:37:02;100588.75;;;11.76;58.41
49461;BME280;35355;49.198;-0.368;2023-03-16T02:39:27;100584.69;;;11.74;59.06
49461;BME280;35355;49.198;-0.368;2023-03-16T02:41:53;100572.38;;;11.71;58.68
49461;BME280;35355;49.198;-0.368;2023-03-16T02:44:27;100571.25;;;11.67;58.92
49461;BME280;35355;49.198;-0.368;2023-03-16T02:47:01;100575.63;;;11.63;59.04
49461;BME280;35355;49.198;-0.368;2023-03-16T02:49:37;100566.91;;;11.56;58.67
49461;BME280;35355;49.198;-0.368;2023-03-16T02:52:05;100564.16;;;11.51;59.04
49461;BME280;35355;49.198;-0.368;2023-03-16T02:54:31;100560.88;;;11.49;59.30
49461;BME280;35355;49.198;-0.368;2023-03-16T02:56:56;100555.41;;;11.49;59.34
49461;BME280;35355;49.198;-0.368;2023-03-16T02:59:22;100548.31;;;11.48;59.10
49461;BME280;35355;49.198;-0.368;2023-03-16T03:01:47;100546.66;;;11.47;59.76
49461;BME280;35355;49.198;-0.368;2023-03-16T03:04:13;100549.38;;;11.47;59.41
49461;BME280;35355;49.198;-0.368;2023-03-16T03:06:38;100548.31;;;11.48;59.54
49461;BME280;35355;49.198;-0.368;2023-03-16T03:09:05;100548.31;;;11.48;59.40
49461;BME280;35355;49.198;-0.368;2023-03-16T03:11:31;100550.75;;;11.49;59.88
49461;BME280;35355;49.198;-0.368;2023-03-16T03:13:56;100554.88;;;11.52;59.77
49461;BME280;35355;49.198;-0.368;2023-03-16T03:16:22;100546.66;;;11.52;59.58
49461;BME280;35355;49.198;-0.368;2023-03-16T03:18:48;100548.28;;;11.53;59.97
49461;BME280;35355;49.198;-0.368;2023-03-16T03:21:13;100552.66;;;11.54;59.91
49461;BME280;35355;49.198;-0.368;2023-03-16T03:23:39;100548.84;;;11.55;59.98
49461;BME280;35355;49.198;-0.368;2023-03-16T03:26:05;100547.78;;;11.56;59.61
49461;BME280;35355;49.198;-0.368;2023-03-16T03:28:30;100546.66;;;11.57;60.02
49461;BME280;35355;49.198;-0.368;2023-03-16T03:30:58;100551.59;;;11.55;59.64
49461;BME280;35355;49.198;-0.368;2023-03-16T03:33:24;100545.56;;;11.53;59.72
49461;BME280;35355;49.198;-0.368;2023-03-16T03:35:56;100552.66;;;11.54;60.13
49461;BME280;35355;49.198;-0.368;2023-03-16T03:38:22;100552.97;;;11.57;60.19
49461;BME280;35355;49.198;-0.368;2023-03-16T03:40:52;100548.31;;;11.58;60.32
49461;BME280;35355;49.198;-0.368;2023-03-16T03:43:19;100551.28;;;11.62;60.39
49461;BME280;35355;49.198;-0.368;2023-03-16T03:45:45;100538.47;;;11.62;60.14
49461;BME280;35355;49.198;-0.368;2023-03-16T03:48:10;100557.59;;;11.62;59.93
49461;BME280;35355;49.198;-0.368;2023-03-16T03:50:36;100551.03;;;11.63;60.12
49461;BME280;35355;49.198;-0.368;2023-03-16T03:53:03;100556.22;;;11.65;60.02
49461;BME280;35355;49.198;-0.368;2023-03-16T03:55:29;100548.84;;;11.65;60.62
49461;BME280;35355;49.198;-0.368;2023-03-16T03:57:54;100550.50;;;11.66;60.16
49461;BME280;35355;49.198;-0.368;2023-03-16T04:00:20;100538.44;;;11.67;60.46
49461;BME280;35355;49.198;-0.368;2023-03-16T04:02:46;100534.63;;;11.68;60.57
49461;BME280;35355;49.198;-0.368;2023-03-16T04:05:12;100534.63;;;11.68;60.64
49461;BME280;35355;49.198;-0.368;2023-03-16T04:07:37;100526.44;;;11.68;60.64
49461;BME280;35355;49.198;-0.368;2023-03-16T04:10:04;100519.31;;;11.67;60.52
49461;BME280;35355;49.198;-0.368;2023-03-16T04:12:29;100517.41;;;11.63;60.87
49461;BME280;35355;49.198;-0.368;2023-03-16T04:14:54;100513.84;;;11.57;61.09
49461;BME280;35355;49.198;-0.368;2023-03-16T04:17:20;100511.13;;;11.52;61.07
49461;BME280;35355;49.198;-0.368;2023-03-16T04:19:45;100504.56;;;11.48;61.72
49461;BME280;35355;49.198;-0.368;2023-03-16T04:22:11;100495.00;;;11.50;61.41
49461;BME280;35355;49.198;-0.368;2023-03-16T04:24:37;100501.81;;;11.53;61.62
49461;BME280;35355;49.198;-0.368;2023-03-16T04:27:03;100504.03;;;11.56;61.51
49461;BME280;35355;49.198;-0.368;2023-03-16T04:29:28;100501.31;;;11.56;61.79
49461;BME280;35355;49.198;-0.368;2023-03-16T04:31:53;100500.47;;;11.55;61.83
49461;BME280;35355;49.198;-0.368;2023-03-16T04:34:20;100512.78;;;11.58;62.01
49461;BME280;35355;49.198;-0.368;2023-03-16T04:36:50;100506.50;;;11.57;61.50
49461;BME280;35355;49.198;-0.368;2023-03-16T04:39:16;100507.31;;;11.58;61.69
49461;BME280;35355;49.198;-0.368;2023-03-16T04:41:42;100511.69;;;11.59;62.16
49461;BME280;35355;49.198;-0.368;2023-03-16T04:44:07;100495.00;;;11.61;62.27
49461;BME280;35355;49.198;-0.368;2023-03-16T04:46:32;100504.00;;;11.61;62.19
49461;BME280;35355;49.198;-0.368;2023-03-16T04:48:58;100493.09;;;11.61;62.16
49461;BME280;35355;49.198;-0.368;2023-03-16T04:51:24;100504.00;;;11.61;62.16
49461;BME280;35355;49.198;-0.368;2023-03-16T04:53:49;100492.56;;;11.59;61.85
49461;BME280;35355;49.198;-0.368;2023-03-16T04:56:15;100494.16;;;11.60;62.11
49461;BME280;35355;49.198;-0.368;2023-03-16T04:58:44;100486.53;;;11.57;62.33
49461;BME280;35355;49.198;-0.368;2023-03-16T05:01:09;100490.38;;;11.56;62.12
49461;BME280;35355;49.198;-0.368;2023-03-16T05:03:34;100488.72;;;11.55;62.15
49461;BME280;35355;49.198;-0.368;2023-03-16T05:06:00;100481.06;;;11.52;61.96
49461;BME280;35355;49.198;-0.368;2023-03-16T05:08:25;100489.81;;;11.49;62.51
49461;BME280;35355;49.198;-0.368;2023-03-16T05:10:55;100495.28;;;11.44;62.11
49461;BME280;35355;49.198;-0.368;2023-03-16T05:13:21;100492.28;;;11.40;62.09
49461;BME280;35355;49.198;-0.368;2023-03-16T05:15:46;100493.09;;;11.40;62.19
49461;BME280;35355;49.198;-0.368;2023-03-16T05:18:12;100491.44;;;11.39;62.21
49461;BME280;35355;49.198;-0.368;2023-03-16T05:20:37;100481.63;;;11.38;62.17
49461;BME280;35355;49.198;-0.368;2023-03-16T05:23:02;100478.88;;;11.38;62.37
49461;BME280;35355;49.198;-0.368;2023-03-16T05:25:28;100491.44;;;11.39;62.72
49461;BME280;35355;49.198;-0.368;2023-03-16T05:27:53;100478.88;;;11.38;62.66
49461;BME280;35355;49.198;-0.368;2023-03-16T05:30:19;100482.72;;;11.37;62.73
49461;BME280;35355;49.198;-0.368;2023-03-16T05:32:44;100476.72;;;11.35;62.76
49461;BME280;35355;49.198;-0.368;2023-03-16T05:35:10;100464.94;;;11.35;62.81
49461;BME280;35355;49.198;-0.368;2023-03-16T05:37:40;100467.66;;;11.35;62.37
49461;BME280;35355;49.198;-0.368;2023-03-16T05:40:07;100470.13;;;11.36;62.86
49461;BME280;35355;49.198;-0.368;2023-03-16T05:42:44;100459.19;;;11.36;62.92
49461;BME280;35355;49.198;-0.368;2023-03-16T05:45:10;100456.75;;;11.35;62.89
49461;BME280;35355;49.198;-0.368;2023-03-16T05:47:36;100461.94;;;11.31;62.51
49461;BME280;35355;49.198;-0.368;2023-03-16T05:50:03;100457.03;;;11.28;62.50
49461;BME280;35355;49.198;-0.368;2023-03-16T05:52:29;100453.19;;;11.29;63.00
49461;BME280;35355;49.198;-0.368;2023-03-16T05:54:54;100457.84;;;11.29;62.96
49461;BME280;35355;49.198;-0.368;2023-03-16T05:57:19;100459.22;;;11.31;62.50
49461;BME280;35355;49.198;-0.368;2023-03-16T05:59:45;100450.19;;;11.31;62.60
49461;BME280;35355;49.198;-0.368;2023-03-16T06:02:10;100445.56;;;11.31;62.77
49461;BME280;35355;49.198;-0.368;2023-03-16T06:04:35;100445.28;;;11.33;62.48
49461;BME280;35355;49.198;-0.368;2023-03-16T06:07:01;100454.84;;;11.30;62.84
49461;BME280;35355;49.198;-0.368;2023-03-16T06:09:26;100455.91;;;11.29;62.59
49461;BME280;35355;49.198;-0.368;2023-03-16T06:11:52;100455.09;;;11.29;62.66
49461;BME280;35355;49.198;-0.368;2023-03-16T06:14:17;100459.19;;;11.26;62.66
49461;BME280;35355;49.198;-0.368;2023-03-16T06:16:43;100457.84;;;11.29;62.75
49461;BME280;35355;49.198;-0.368;2023-03-16T06:19:08;100459.50;;;11.30;62.91
49461;BME280;35355;49.198;-0.368;2023-03-16T06:21:34;100461.94;;;11.31;62.71
49461;BME280;35355;49.198;-0.368;2023-03-16T06:23:59;100460.81;;;11.32;62.90
49461;BME280;35355;49.198;-0.368;2023-03-16T06:26:26;100463.03;;;11.35;62.81
49461;BME280;35355;49.198;-0.368;2023-03-16T06:28:51;100454.28;;;11.38;62.65
49461;BME280;35355;49.198;-0.368;2023-03-16T06:31:16;100453.19;;;11.39;62.26
49461;BME280;35355;49.198;-0.368;2023-03-16T06:33:42;100453.75;;;11.41;62.51
49461;BME280;35355;49.198;-0.368;2023-03-16T06:36:07;100457.28;;;11.42;62.21
49461;BME280;35355;49.198;-0.368;2023-03-16T06:38:32;100456.47;;;11.41;61.91
49461;BME280;35355;49.198;-0.368;2023-03-16T06:40:58;100453.47;;;11.43;62.65
49461;BME280;35355;49.198;-0.368;2023-03-16T06:43:24;100441.69;;;11.43;62.59
49461;BME280;35355;49.198;-0.368;2023-03-16T06:45:49;100447.16;;;11.43;62.55
49461;BME280;35355;49.198;-0.368;2023-03-16T06:48:14;100436.22;;;11.43;62.70
49461;BME280;35355;49.198;-0.368;2023-03-16T06:50:40;100445.53;;;11.41;62.30
49461;BME280;35355;49.198;-0.368;2023-03-16T06:53:05;100438.97;;;11.37;62.06
49461;BME280;35355;49.198;-0.368;2023-03-16T06:55:30;100439.53;;;11.34;62.17
49461;BME280;35355;49.198;-0.368;2023-03-16T06:57:56;100437.63;;;11.35;62.26
49461;BME280;35355;49.198;-0.368;2023-03-16T07:00:21;100437.88;;;11.33;62.54
49461;BME280;35355;49.198;-0.368;2023-03-16T07:02:47;100435.97;;;11.29;62.11
49461;BME280;35355;49.198;-0.368;2023-03-16T07:05:12;100435.16;;;11.28;62.31
49461;BME280;35355;49.198;-0.368;2023-03-16T07:07:41;100425.59;;;11.26;62.39
49461;BME280;35355;49.198;-0.368;2023-03-16T07:10:13;100422.06;;;11.25;62.29
49461;BME280;35355;49.198;-0.368;2023-03-16T07:12:40;100428.06;;;11.27;62.52
49461;BME280;35355;49.198;-0.368;2023-03-16T07:15:06;100424.25;;;11.28;62.18
49461;BME280;35355;49.198;-0.368;2023-03-16T07:17:32;100421.78;;;11.27;62.18
49461;BME280;35355;49.198;-0.368;2023-03-16T07:19:57;100421.50;;;11.28;62.08
49461;BME280;35355;49.198;-0.368;2023-03-16T07:22:23;100422.03;;;11.30;62.39
49461;BME280;35355;49.198;-0.368;2023-03-16T07:24:48;100426.97;;;11.33;61.85
49461;BME280;35355;49.198;-0.368;2023-03-16T07:27:21;100421.50;;;11.33;62.07
49461;BME280;35355;49.198;-0.368;2023-03-16T07:29:47;100426.41;;;11.36;61.97
49461;BME280;35355;49.198;-0.368;2023-03-16T07:32:13;100433.53;;;11.37;62.07
49461;BME280;35355;49.198;-0.368;2023-03-16T07:34:38;100429.69;;;11.38;62.16
49461;BME280;35355;49.198;-0.368;2023-03-16T07:37:04;100432.97;;;11.40;61.84
49461;BME280;35355;49.198;-0.368;2023-03-16T07:39:29;100436.00;;;11.44;61.82
49461;BME280;35355;49.198;-0.368;2023-03-16T07:41:55;100427.50;;;11.46;61.73
49461;BME280;35355;49.198;-0.368;2023-03-16T07:44:21;100433.50;;;11.48;61.94
49461;BME280;35355;49.198;-0.368;2023-03-16T07:46:46;100436.78;;;11.50;61.87
49461;BME280;35355;49.198;-0.368;2023-03-16T07:49:12;100437.34;;;11.52;62.09
49461;BME280;35355;49.198;-0.368;2023-03-16T07:51:37;100434.03;;;11.55;61.73
49461;BME280;35355;49.198;-0.368;2023-03-16T07:54:03;100430.75;;;11.58;61.88
49461;BME280;35355;49.198;-0.368;2023-03-16T07:56:29;100437.59;;;11.61;61.89
49461;BME280;35355;49.198;-0.368;2023-03-16T07:58:54;100438.69;;;11.59;62.03
49461;BME280;35355;49.198;-0.368;2023-03-16T08:01:20;100434.56;;;11.57;61.93
49461;BME280;35355;49.198;-0.368;2023-03-16T08:03:46;100436.75;;;11.60;62.15
49461;BME280;35355;49.198;-0.368;2023-03-16T08:06:11;100440.31;;;11.66;62.05
49461;BME280;35355;49.198;-0.368;2023-03-16T08:08:37;100436.75;;;11.70;62.08
49461;BME280;35355;49.198;-0.368;2023-03-16T08:11:02;100450.38;;;11.81;61.94
49461;BME280;35355;49.198;-0.368;2023-03-16T08:13:28;100451.47;;;11.90;62.09
49461;BME280;35355;49.198;-0.368;2023-03-16T08:15:54;100441.06;;;11.97;61.74
49461;BME280;35355;49.198;-0.368;2023-03-16T08:18:24;100441.59;;;12.04;61.79
49461;BME280;35355;49.198;-0.368;2023-03-16T08:20:49;100440.47;;;12.10;61.40
49461;BME280;35355;49.198;-0.368;2023-03-16T08:23:15;100431.75;;;12.14;61.65
49461;BME280;35355;49.198;-0.368;2023-03-16T08:25:41;100436.09;;;12.15;61.33
49461;BME280;35355;49.198;-0.368;2023-03-16T08:28:07;100430.63;;;12.15;61.77
49461;BME280;35355;49.198;-0.368;2023-03-16T08:30:34;100427.88;;;12.20;61.65
49461;BME280;35355;49.198;-0.368;2023-03-16T08:33:00;100420.19;;;12.27;61.62
49461;BME280;35355;49.198;-0.368;2023-03-16T08:35:27;100423.44;;;12.34;61.19
49461;BME280;35355;49.198;-0.368;2023-03-16T08:37:54;100422.59;;;12.39;61.02
49461;BME280;35355;49.198;-0.368;2023-03-16T08:40:20;100413.53;;;12.38;61.06
49461;BME280;35355;49.198;-0.368;2023-03-16T08:42:47;100412.97;;;12.41;61.25
49461;BME280;35355;49.198;-0.368;2023-03-16T08:45:14;100412.16;;;12.46;61.36
49461;BME280;35355;49.198;-0.368;2023-03-16T08:47:42;100400.34;;;12.51;61.14
49461;BME280;35355;49.198;-0.368;2023-03-16T08:50:09;100392.09;;;12.56;61.23
49461;BME280;35355;49.198;-0.368;2023-03-16T08:52:35;100389.34;;;12.61;61.00
49461;BME280;35355;49.198;-0.368;2023-03-16T08:55:02;100398.06;;;12.68;60.63
49461;BME280;35355;49.198;-0.368;2023-03-16T08:57:30;100390.31;;;12.75;60.67
49461;BME280;35355;49.198;-0.368;2023-03-16T08:59:57;100388.34;;;12.81;60.48
49461;BME280;35355;49.198;-0.368;2023-03-16T09:02:22;100376.84;;;12.84;60.63
49461;BME280;35355;49.198;-0.368;2023-03-16T09:04:48;100389.13;;;12.92;60.72
49461;BME280;35355;49.198;-0.368;2023-03-16T09:07:14;100377.81;;;12.98;60.59
49461;BME280;35355;49.198;-0.368;2023-03-16T09:09:39;100373.63;;;13.06;60.27
49461;BME280;35355;49.198;-0.368;2023-03-16T09:12:04;100379.09;;;13.11;60.13
49461;BME280;35355;49.198;-0.368;2023-03-16T09:14:30;100362.06;;;13.14;60.04
49461;BME280;35355;49.198;-0.368;2023-03-16T09:16:55;100370.50;;;13.18;60.17
49461;BME280;35355;49.198;-0.368;2023-03-16T09:19:21;100365.28;;;13.22;59.83
49461;BME280;35355;49.198;-0.368;2023-03-16T09:21:47;100374.03;;;13.24;59.97
49461;BME280;35355;49.198;-0.368;2023-03-16T09:24:12;100367.97;;;13.27;59.92
49461;BME280;35355;49.198;-0.368;2023-03-16T09:26:38;100361.91;;;13.30;60.09
49461;BME280;35355;49.198;-0.368;2023-03-16T09:29:04;100351.75;;;13.36;59.85
49461;BME280;35355;49.198;-0.368;2023-03-16T09:31:31;100355.78;;;13.43;59.89
49461;BME280;35355;49.198;-0.368;2023-03-16T09:33:57;100349.38;;;13.53;59.70
49461;BME280;35355;49.198;-0.368;2023-03-16T09:36:23;100350.94;;;13.59;59.39
49461;BME280;35355;49.198;-0.368;2023-03-16T09:38:48;100347.88;;;13.66;59.20
49461;BME280;35355;49.198;-0.368;2023-03-16T09:41:24;100345.03;;;13.71;59.00
49461;BME280;35355;49.198;-0.368;2023-03-16T09:44:20;100342.84;;;13.73;59.68
49461;BME280;35355;49.198;-0.368;2023-03-16T09:46:48;100338.38;;;13.77;58.82
49461;BME280;35355;49.198;-0.368;2023-03-16T09:49:18;100332.91;;;13.77;58.77
49461;BME280;35355;49.198;-0.368;2023-03-16T09:57:13;100327.28;;;13.88;58.60
49461;BME280;35355;49.198;-0.368;2023-03-16T09:59:39;100317.91;;;13.94;58.62
49461;BME280;35355;49.198;-0.368;2023-03-16T10:05:06;100314.94;;;14.09;58.83
49461;BME280;35355;49.198;-0.368;2023-03-16T10:07:56;100308.78;;;14.17;58.82
49461;BME280;35355;49.198;-0.368;2023-03-16T10:10:57;100308.72;;;14.23;58.95
49461;BME280;35355;49.198;-0.368;2023-03-16T10:16:18;100296.91;;;14.41;58.74
49461;BME280;35355;49.198;-0.368;2023-03-16T10:18:47;100297.06;;;14.50;58.48
49461;BME280;35355;49.198;-0.368;2023-03-16T10:21:16;100294.72;;;14.57;58.44
49461;BME280;35355;49.198;-0.368;2023-03-16T10:23:44;100286.63;;;14.66;58.44
49461;BME280;35355;49.198;-0.368;2023-03-16T10:26:17;100289.75;;;14.78;58.51
49461;BME280;35355;49.198;-0.368;2023-03-16T10:28:45;100272.25;;;14.88;58.43
49461;BME280;35355;49.198;-0.368;2023-03-16T10:31:11;100268.22;;;14.99;58.39
49461;BME280;35355;49.198;-0.368;2023-03-16T10:33:38;100278.41;;;15.13;58.15
49461;BME280;35355;49.198;-0.368;2023-03-16T10:36:22;100274.34;;;15.24;58.29
49461;BME280;35355;49.198;-0.368;2023-03-16T10:38:56;100272.75;;;15.37;57.81
49461;BME280;35355;49.198;-0.368;2023-03-16T10:41:30;100270.06;;;15.46;57.82
49461;BME280;35355;49.198;-0.368;2023-03-16T10:43:57;100272.91;;;15.54;56.77
49461;BME280;35355;49.198;-0.368;2023-03-16T10:46:25;100267.81;;;15.61;56.86
49461;BME280;35355;49.198;-0.368;2023-03-16T10:48:59;100253.97;;;15.67;57.31
49461;BME280;35355;49.198;-0.368;2023-03-16T10:51:28;100253.53;;;15.73;58.52
49461;BME280;35355;49.198;-0.368;2023-03-16T10:54:14;100249.28;;;15.81;57.54
49461;BME280;35355;49.198;-0.368;2023-03-16T10:56:40;100238.03;;;15.91;56.41
49461;BME280;35355;49.198;-0.368;2023-03-16T10:59:29;100234.53;;;16.00;57.24
49461;BME280;35355;49.198;-0.368;2023-03-16T11:01:56;100239.00;;;16.09;56.12
49461;BME280;35355;49.198;-0.368;2023-03-16T11:04:22;100231.94;;;16.17;55.48
49461;BME280;35355;49.198;-0.368;2023-03-16T11:06:55;100225.50;;;16.22;55.74
49461;BME280;35355;49.198;-0.368;2023-03-16T11:09:32;100224.56;;;16.26;55.19
49461;BME280;35355;49.198;-0.368;2023-03-16T11:12:00;100228.81;;;16.33;55.02
49461;BME280;35355;49.198;-0.368;2023-03-16T11:14:36;100218.31;;;16.35;54.76
49461;BME280;35355;49.198;-0.368;2023-03-16T11:17:05;100217.69;;;16.38;54.93
49461;BME280;35355;49.198;-0.368;2023-03-16T11:19:50;100212.66;;;16.40;55.57
49461;BME280;35355;49.198;-0.368;2023-03-16T11:22:19;100211.06;;;16.47;54.57
49461;BME280;35355;49.198;-0.368;2023-03-16T11:33:13;100192.78;;;16.74;53.68
49461;BME280;35355;49.198;-0.368;2023-03-16T11:35:52;100183.88;;;16.77;54.27
49461;BME280;35355;49.198;-0.368;2023-03-16T11:41:43;100169.63;;;16.84;53.10
49461;BME280;35355;49.198;-0.368;2023-03-16T11:47:22;100175.78;;;16.81;54.28
49461;BME280;35355;49.198;-0.368;2023-03-16T11:55:21;100176.75;;;16.85;53.96
49461;BME280;35355;49.198;-0.368;2023-03-16T11:57:55;100178.22;;;16.82;52.92
49461;BME280;35355;49.198;-0.368;2023-03-16T12:09:18;100164.66;;;16.63;53.56
49461;BME280;35355;49.198;-0.368;2023-03-16T12:11:54;100165.19;;;16.65;53.29
49461;BME280;35355;49.198;-0.368;2023-03-16T12:14:26;100158.50;;;16.66;52.83
49461;BME280;35355;49.198;-0.368;2023-03-16T12:17:19;100165.34;;;16.69;53.62
49461;BME280;35355;49.198;-0.368;2023-03-16T12:20:51;100152.88;;;16.72;52.41
49461;BME280;35355;49.198;-0.368;2023-03-16T12:25:25;100136.53;;;16.84;52.27
49461;BME280;35355;49.198;-0.368;2023-03-16T12:27:56;100132.53;;;16.90;52.13
49461;BME280;35355;49.198;-0.368;2023-03-16T12:30:44;100125.25;;;16.94;53.12
49461;BME280;35355;49.198;-0.368;2023-03-16T12:34:07;100127.25;;;17.03;53.04
49461;BME280;35355;49.198;-0.368;2023-03-16T12:39:00;100120.13;;;17.19;52.07
49461;BME280;35355;49.198;-0.368;2023-03-16T12:42:43;100117.06;;;17.29;52.36
49461;BME280;35355;49.198;-0.368;2023-03-16T12:44:42;100110.59;;;17.43;51.72
49461;BME280;35355;49.198;-0.368;2023-03-16T12:50:15;100109.16;;;17.54;50.34
49461;BME280;35355;49.198;-0.368;2023-03-16T12:55:23;100093.22;;;17.60;50.95
49461;BME280;35355;49.198;-0.368;2023-03-16T12:57:58;100085.91;;;17.64;50.35
49461;BME280;35355;49.198;-0.368;2023-03-16T13:00:37;100086.75;;;17.64;50.62
49461;BME280;35355;49.198;-0.368;2023-03-16T13:03:09;100080.06;;;17.65;49.28
49461;BME280;35355;49.198;-0.368;2023-03-16T13:05:36;100079.59;;;17.63;49.10
49461;BME280;35355;49.198;-0.368;2023-03-16T13:08:16;100075.19;;;17.62;50.12
49461;BME280;35355;49.198;-0.368;2023-03-16T13:11:04;100068.56;;;17.63;50.45
49461;BME280;35355;49.198;-0.368;2023-03-16T13:13:31;100070.34;;;17.68;49.24
49461;BME280;35355;49.198;-0.368;2023-03-16T13:16:08;100070.34;;;17.68;50.10
49461;BME280;35355;49.198;-0.368;2023-03-16T13:18:39;100056.38;;;17.73;49.59
49461;BME280;35355;49.198;-0.368;2023-03-16T13:21:18;100058.81;;;17.75;49.66
49461;BME280;35355;49.198;-0.368;2023-03-16T13:26:45;100054.56;;;17.86;50.56
49461;BME280;35355;49.198;-0.368;2023-03-16T13:29:32;100052.47;;;17.92;50.20
49461;BME280;35355;49.198;-0.368;2023-03-16T13:32:02;100038.34;;;17.93;48.61
49461;BME280;35355;49.198;-0.368;2023-03-16T13:34:36;100038.84;;;17.95;48.42
49461;BME280;35355;49.198;-0.368;2023-03-16T13:37:03;100043.69;;;17.98;47.93
49461;BME280;35355;49.198;-0.368;2023-03-16T13:39:30;100037.00;;;17.99;47.85
49461;BME280;35355;49.198;-0.368;2023-03-16T13:44:22;100029.38;;;18.05;47.88
49461;BME280;35355;49.198;-0.368;2023-03-16T13:46:48;100036.66;;;18.10;47.61
49461;BME280;35355;49.198;-0.368;2023-03-16T13:49:17;100034.41;;;18.12;47.75
49461;BME280;35355;49.198;-0.368;2023-03-16T13:51:44;100029.81;;;18.16;47.96